Alford, Massachusetts
Current Conditions -  °F | °C
As of 7:54 PM on Thursday 27 Nov 2014 (Local Time) from KPSF Reporting Station
Light Snow Light Snow  
Wind Chill: 19°   Ceiling: 2100
Heat Index: 25°   Visibility: 6mi
Dew Point: 22°   Wind: 5mph
Humidity: 88%   Direction: 300°WNW
Pressure: 29.96"   Gusts: NA
Location:  42.1779°N, 73.3332°W
Report Text: KPSF 280054Z AUTO 30004KT 6SM -SN BR BKN021 OVC065 M04/M06 A2996 RMK AO2 SLP161 P0000 T10391056
Loading
Personal Weather Stations






























Interactive Weather Map New forecast layout! Learn more

10-Day Weather Forecast

Advertisements
Track Severe Weather on mobile